Champion, Canada
Current Conditions -  °F | °C
As of 2:00 AM on Sunday 26 Oct 2014 (Local Time) from CYQL Reporting Station
Clear Clear  
Wind Chill: -1°   Ceiling: Unl
Heat Index:   Visibility: 9mi
Dew Point:   Wind: 10mph
Humidity: 87%   Direction: 150°SSE
Pressure: 29.47"   Gusts: NA
Location:  50.22°N, 113.15°W
Report Text: CYQL 260800Z AUTO 15009KT 110V220 9SM CLR 03/01 A2947 RMK SLP995
Loading
Personal Weather Stations






























Interactive Weather Map
Tropical Storm Tracking
New forecast layout! Learn more

10-Day Weather Forecast

Advertisements
Track Severe Weather on mobile